Time;durP1;ratioP1;P1;durP2;ratioP2;P2;SDS_P1;SDS_P2;PMS_P1;PMS_P2;Temp;Humidity;BMP_temperature;BMP_pressure;BME280_temperature;BME280_humidity;BME280_pressure;Samples;Min_cycle;Max_cycle;Signal;HPM_P1;HPM_P2
2022/04/02 00:00:28;;;;;;;11.45;8.60;;;2.00;92.60;;;;;;4994549;28;20386;-75
2022/04/02 00:02:55;;;;;;;14.60;8.43;;;2.10;91.20;;;;;;4993909;28;20478;-77
2022/04/02 00:05:21;;;;;;;14.25;7.18;;;2.10;89.40;;;;;;4994100;28;20394;-74
2022/04/02 00:07:46;;;;;;;14.07;8.15;;;2.00;85.60;;;;;;4976310;28;20402;-74
2022/04/02 00:10:12;;;;;;;12.20;8.00;;;2.00;86.20;;;;;;4993761;28;20733;-76
2022/04/02 00:12:39;;;;;;;14.40;8.90;;;2.00;85.10;;;;;;4992447;28;20402;-76
2022/04/02 00:15:05;;;;;;;14.15;8.30;;;2.10;85.40;;;;;;4993411;28;20410;-75
2022/04/02 00:17:32;;;;;;;12.38;8.25;;;2.20;85.20;;;;;;4993572;28;20741;-75
2022/04/02 00:19:57;;;;;;;13.00;7.68;;;2.20;83.50;;;;;;4975946;28;20395;-75
2022/04/02 00:22:23;;;;;;;10.80;7.17;;;2.20;81.60;;;;;;4976085;28;20405;-76
2022/04/02 00:24:48;;;;;;;8.98;6.43;;;2.20;80.40;;;;;;4993831;28;20401;-75
2022/04/02 00:27:14;;;;;;;11.73;7.10;;;2.20;79.10;;;;;;4997557;28;20747;-76
2022/04/02 00:29:41;;;;;;;11.05;7.50;;;2.20;80.50;;;;;;4994403;28;20418;-76
2022/04/02 00:32:07;;;;;;;12.73;7.30;;;2.20;80.50;;;;;;4975783;28;20506;-77
2022/04/02 00:34:32;;;;;;;14.45;7.85;;;2.20;79.50;;;;;;4993843;28;20465;-76
2022/04/02 00:36:58;;;;;;;11.30;6.73;;;2.20;78.60;;;;;;4993632;28;20414;-76
2022/04/02 00:39:24;;;;;;;12.60;7.37;;;2.30;75.30;;;;;;4993675;28;20394;-74
2022/04/02 00:41:49;;;;;;;11.37;6.63;;;2.30;76.40;;;;;;4992992;28;20387;-74
2022/04/02 00:44:20;;;;;;;12.80;7.10;;;2.30;77.30;;;;;;4994054;28;20456;-76
2022/04/02 00:46:47;;;;;;;12.13;6.75;;;2.40;75.40;;;;;;4993960;28;20419;-75
2022/04/02 00:49:14;;;;;;;6.63;5.93;;;2.40;74.50;;;;;;4994200;28;20481;-75
2022/04/02 00:51:41;;;;;;;10.65;6.20;;;2.30;71.90;;;;;;4993855;28;20444;-75
2022/04/02 00:54:15;;;;;;;12.07;6.93;;;2.30;71.40;;;;;;4966100;28;20455;-74
2022/04/02 00:56:42;;;;;;;10.23;7.03;;;2.30;72.90;;;;;;4974195;28;20434;-74
2022/04/02 00:59:08;;;;;;;9.88;6.30;;;2.20;72.70;;;;;;4973424;28;20853;-75
2022/04/02 01:01:35;;;;;;;12.48;6.50;;;2.30;71.70;;;;;;4973397;28;20726;-75
2022/04/02 01:04:04;;;;;;;6.47;5.50;;;2.30;70.00;;;;;;4973194;28;20423;-75
2022/04/02 01:06:32;;;;;;;8.85;6.20;;;2.40;69.60;;;;;;4973299;28;20399;-76
2022/04/02 01:08:58;;;;;;;12.88;6.50;;;2.40;69.00;;;;;;4956088;28;20415;-76
2022/04/02 01:11:34;;;;;;;11.45;6.90;;;2.40;70.00;;;;;;4973317;28;20419;-76
2022/04/02 01:14:00;;;;;;;12.93;6.45;;;2.40;68.50;;;;;;4973521;28;20412;-76
2022/04/02 01:16:27;;;;;;;11.80;6.10;;;2.40;70.70;;;;;;4973561;28;20419;-76
2022/04/02 01:18:52;;;;;;;8.82;5.60;;;2.50;67.50;;;;;;4955961;28;20479;-75
2022/04/02 01:21:18;;;;;;;8.97;6.03;;;2.50;64.70;;;;;;4956839;28;20596;-75
2022/04/02 01:23:44;;;;;;;11.23;7.50;;;2.50;63.00;;;;;;4983655;28;20388;-74
2022/04/02 01:26:09;;;;;;;20.40;9.57;;;2.50;61.20;;;;;;4965974;28;20424;-75
2022/04/02 01:28:35;;;;;;;17.03;10.57;;;2.50;62.50;;;;;;4974610;28;20396;-74
2022/04/02 01:31:07;;;;;;;14.80;8.50;;;2.50;62.60;;;;;;4973775;28;20392;-74
2022/04/02 01:33:36;;;;;;;8.65;6.10;;;2.60;63.30;;;;;;4956319;28;20388;-74
2022/04/02 01:36:04;;;;;;;7.72;5.20;;;2.60;61.20;;;;;;4973137;28;20416;-74
2022/04/02 01:38:30;;;;;;;11.43;4.30;;;2.60;60.40;;;;;;4955859;28;20428;-75
2022/04/02 01:40:57;;;;;;;5.60;4.85;;;2.50;59.40;;;;;;4973608;28;20455;-74
2022/04/02 01:43:24;;;;;;;9.63;4.30;;;2.60;58.90;;;;;;4973369;28;20475;-74
2022/04/02 01:45:54;;;;;;;4.97;4.10;;;2.50;58.10;;;;;;4973769;28;20388;-75
2022/04/02 01:48:19;;;;;;;6.80;3.65;;;2.50;56.70;;;;;;4980584;28;20440;-76
2022/04/02 01:50:45;;;;;;;7.32;4.50;;;2.50;56.70;;;;;;4987324;28;20400;-76
2022/04/02 01:53:11;;;;;;;5.40;4.10;;;2.60;56.40;;;;;;4991305;28;20410;-74
2022/04/02 01:55:36;;;;;;;8.10;4.50;;;2.60;56.50;;;;;;5002482;28;20422;-75
2022/04/02 01:58:02;;;;;;;9.35;3.92;;;2.60;56.00;;;;;;5001517;28;20799;-75
2022/04/02 02:00:27;;;;;;;6.88;4.10;;;2.60;53.50;;;;;;4999907;28;20421;-75
2022/04/02 02:02:53;;;;;;;6.53;4.10;;;2.70;53.60;;;;;;4995815;28;20962;-75
2022/04/02 02:05:19;;;;;;;5.53;3.67;;;2.70;53.40;;;;;;4992837;28;20398;-76
2022/04/02 02:07:51;;;;;;;12.10;5.13;;;2.70;52.40;;;;;;4992884;28;20433;-76
2022/04/02 02:10:18;;;;;;;9.73;4.45;;;2.70;54.10;;;;;;4992319;28;20805;-74
2022/04/02 02:12:44;;;;;;;10.38;4.43;;;2.80;53.00;;;;;;4991942;28;20397;-74
2022/04/02 02:15:16;;;;;;;6.17;4.00;;;2.70;53.70;;;;;;4992248;28;20411;-75
2022/04/02 02:17:45;;;;;;;7.70;4.00;;;2.80;52.90;;;;;;4992316;28;20414;-74
2022/04/02 02:20:12;;;;;;;5.28;3.90;;;2.90;50.80;;;;;;4992676;28;20409;-76
2022/04/02 02:22:42;;;;;;;6.63;3.90;;;2.90;49.20;;;;;;4993545;28;20497;-76
2022/04/02 02:25:15;;;;;;;5.43;3.57;;;2.80;49.60;;;;;;4975666;28;20402;-76
2022/04/02 02:27:42;;;;;;;5.35;3.60;;;2.80;48.40;;;;;;4974960;28;20443;-76
2022/04/02 02:30:09;;;;;;;12.15;4.97;;;2.70;51.10;;;;;;4980873;28;20391;-76
2022/04/02 02:32:39;;;;;;;6.25;3.50;;;2.80;49.90;;;;;;4994307;28;20404;-76
2022/04/02 02:37:50;;;;;;;8.07;4.13;;;2.70;48.80;;;;;;4995850;28;20394;-76
2022/04/02 02:40:16;;;;;;;6.85;3.70;;;2.70;48.20;;;;;;4993686;28;20610;-76
2022/04/02 02:42:42;;;;;;;8.20;4.07;;;2.70;49.10;;;;;;4964308;28;20392;-76
2022/04/02 02:45:08;;;;;;;7.97;4.20;;;2.70;50.10;;;;;;4976096;28;20388;-75
2022/04/02 02:47:33;;;;;;;7.20;4.30;;;2.70;51.80;;;;;;4977212;28;20450;-75
2022/04/02 02:50:00;;;;;;;8.07;4.07;;;2.70;50.90;;;;;;4995601;28;20871;-75
2022/04/02 02:52:27;;;;;;;5.13;4.10;;;2.80;49.40;;;;;;4995283;28;20433;-76
2022/04/02 02:54:52;;;;;;;4.55;3.60;;;2.80;48.50;;;;;;4960948;28;20983;-76
2022/04/02 02:57:18;;;;;;;4.40;3.40;;;2.80;49.50;;;;;;4969426;28;20394;-75
2022/04/02 02:59:43;;;;;;;4.17;3.77;;;2.80;48.60;;;;;;4995099;28;20924;-76
2022/04/02 03:02:11;;;;;;;6.20;4.10;;;2.80;49.40;;;;;;4995281;28;20868;-74
2022/04/02 03:04:37;;;;;;;5.90;3.28;;;2.80;50.10;;;;;;4995278;28;20398;-75
2022/04/02 03:07:03;;;;;;;10.20;4.10;;;2.80;46.70;;;;;;4994962;28;20399;-75
2022/04/02 03:09:29;;;;;;;4.93;3.38;;;2.80;49.00;;;;;;4977625;28;20440;-75
2022/04/02 03:11:55;;;;;;;6.40;3.90;;;2.80;46.50;;;;;;4994464;28;20390;-76
2022/04/02 03:14:21;;;;;;;4.93;3.60;;;2.80;47.10;;;;;;4966531;28;20506;-76
2022/04/02 03:16:47;;;;;;;5.88;4.00;;;2.80;46.10;;;;;;4975993;28;20408;-76
2022/04/02 03:19:13;;;;;;;5.03;3.70;;;2.80;46.20;;;;;;4975654;28;20387;-75
2022/04/02 03:21:39;;;;;;;4.72;3.53;;;2.70;47.40;;;;;;4975678;28;20419;-74
2022/04/02 03:24:05;;;;;;;13.15;3.40;;;2.70;48.70;;;;;;4958305;28;20396;-75
2022/04/02 03:26:31;;;;;;;3.93;3.50;;;2.80;45.30;;;;;;4976049;28;20487;-75
2022/04/02 03:28:56;;;;;;;6.53;3.70;;;2.80;44.20;;;;;;4958501;28;20948;-75
2022/04/02 03:31:22;;;;;;;5.00;3.47;;;2.80;45.30;;;;;;4975193;28;20503;-75
2022/04/02 03:33:48;;;;;;;8.20;3.75;;;2.80;42.30;;;;;;4975138;28;20896;-75
2022/04/02 03:36:14;;;;;;;6.53;4.10;;;2.80;41.90;;;;;;4975078;28;20889;-75
2022/04/02 03:38:40;;;;;;;4.50;3.23;;;2.70;45.10;;;;;;4974872;28;20411;-75
2022/04/02 03:41:06;;;;;;;5.30;3.10;;;2.80;42.40;;;;;;4983458;28;20398;-75
2022/04/02 03:43:32;;;;;;;5.15;2.80;;;2.80;41.80;;;;;;4994387;28;20497;-74
2022/04/02 03:47:08;;;;;;;3.67;3.05;;;2.70;40.00;;;;;;4997933;28;20391;-75
2022/04/02 03:48:44;;;;;;;6.10;3.45;;;2.70;41.70;;;;;;5007238;28;20440;-75
2022/04/02 03:51:10;;;;;;;3.05;2.60;;;2.80;40.20;;;;;;5018775;28;20384;-75
2022/04/02 03:53:35;;;;;;;7.45;3.55;;;2.80;38.30;;;;;;5014928;28;20845;-73
2022/04/02 03:56:02;;;;;;;6.10;2.90;;;2.70;40.30;;;;;;5002832;28;20410;-73
2022/04/02 03:58:28;;;;;;;5.57;3.15;;;2.70;37.80;;;;;;4984393;28;20753;-74
2022/04/02 04:00:53;;;;;;;5.47;3.00;;;2.70;39.70;;;;;;5001791;28;20413;-75
2022/04/02 04:03:19;;;;;;;4.70;2.90;;;2.80;38.30;;;;;;5002527;28;20398;-74
2022/04/02 04:05:46;;;;;;;4.30;3.00;;;2.80;36.90;;;;;;4998327;28;20439;-75
2022/04/02 04:08:12;;;;;;;4.10;3.20;;;2.80;37.90;;;;;;4994457;28;20424;-75
2022/04/02 04:10:37;;;;;;;5.32;2.80;;;2.80;37.60;;;;;;4994200;28;20891;-75
2022/04/02 04:13:03;;;;;;;4.27;2.60;;;2.80;36.50;;;;;;4993685;28;20429;-74
2022/04/02 04:15:28;;;;;;;7.53;3.33;;;2.80;37.40;;;;;;4983077;28;20439;-75
2022/04/02 04:17:56;;;;;;;6.40;3.20;;;2.80;36.50;;;;;;4974960;28;20388;-75
2022/04/02 04:20:21;;;;;;;3.53;2.30;;;2.80;37.00;;;;;;4974422;28;20815;-75
2022/04/02 04:22:47;;;;;;;3.58;2.97;;;2.70;34.60;;;;;;4974501;28;20384;-75
2022/04/02 04:25:13;;;;;;;4.50;2.77;;;2.70;37.00;;;;;;4976181;28;20423;-75
2022/04/02 04:27:38;;;;;;;7.07;2.83;;;2.70;36.60;;;;;;4974649;28;20427;-76
2022/04/02 04:30:05;;;;;;;4.43;2.72;;;2.80;36.60;;;;;;4958675;28;20414;-76
2022/04/02 04:32:32;;;;;;;6.72;3.00;;;2.70;35.50;;;;;;4979004;28;20400;-76
2022/04/02 04:34:58;;;;;;;7.25;3.78;;;2.70;34.40;;;;;;4987443;28;20416;-76
2022/04/02 04:37:24;;;;;;;3.40;2.80;;;2.70;36.30;;;;;;4993363;28;20441;-76
2022/04/02 04:39:50;;;;;;;6.97;2.72;;;2.70;35.50;;;;;;4980270;28;20396;-75
2022/04/02 04:42:16;;;;;;;4.70;3.50;;;2.70;36.80;;;;;;4970263;28;20386;-76
2022/04/02 04:44:42;;;;;;;4.97;3.10;;;2.70;35.00;;;;;;4993361;28;20414;-75
2022/04/02 04:47:07;;;;;;;2.70;2.50;;;2.80;36.00;;;;;;4976274;28;20406;-76
2022/04/02 04:49:33;;;;;;;4.57;2.87;;;2.80;35.20;;;;;;5013219;28;20389;-75
2022/04/02 04:51:59;;;;;;;4.15;2.75;;;2.80;35.40;;;;;;5012920;28;20436;-75
2022/04/02 04:54:24;;;;;;;5.45;2.83;;;2.70;34.30;;;;;;5012908;28;20424;-75
2022/04/02 04:56:50;;;;;;;4.63;2.53;;;2.70;35.70;;;;;;4999779;28;20390;-76
2022/04/02 04:59:15;;;;;;;3.77;2.90;;;2.70;34.70;;;;;;4993124;28;20727;-75
2022/04/02 05:01:42;;;;;;;2.90;2.40;;;2.70;35.50;;;;;;4993053;28;20390;-75
2022/04/02 05:04:08;;;;;;;3.75;2.40;;;2.70;34.10;;;;;;4993068;28;20395;-74
2022/04/02 05:06:35;;;;;;;6.60;3.00;;;2.70;35.10;;;;;;4993195;28;20416;-74
2022/04/02 05:09:01;;;;;;;4.25;2.75;;;2.70;34.90;;;;;;4993065;28;20395;-75
2022/04/02 05:11:27;;;;;;;5.28;2.88;;;2.70;35.00;;;;;;4993508;28;20783;-76
2022/04/02 05:13:53;;;;;;;3.20;2.40;;;2.70;35.20;;;;;;4993364;28;20473;-75
2022/04/02 05:16:19;;;;;;;4.55;2.63;;;2.70;33.30;;;;;;4976020;28;20493;-74
2022/04/02 05:18:46;;;;;;;6.30;3.40;;;2.70;35.50;;;;;;4993375;28;20441;-75
2022/04/02 05:21:11;;;;;;;3.00;2.67;;;2.70;35.40;;;;;;4994408;28;20744;-75
2022/04/02 05:23:37;;;;;;;3.17;2.60;;;2.70;34.60;;;;;;4995077;28;20410;-77
2022/04/02 05:26:03;;;;;;;3.63;2.70;;;2.70;34.90;;;;;;4995288;28;20527;-77
2022/04/02 05:28:28;;;;;;;5.70;2.90;;;2.70;35.60;;;;;;4977641;28;20406;-76
2022/04/02 05:30:54;;;;;;;3.50;2.60;;;2.70;34.60;;;;;;4977424;28;20866;-76
2022/04/02 05:33:21;;;;;;;6.35;3.13;;;2.70;34.80;;;;;;4994145;28;20397;-76
2022/04/02 05:35:47;;;;;;;4.25;2.90;;;2.70;35.50;;;;;;4992611;28;20406;-76
2022/04/02 05:38:13;;;;;;;5.90;3.25;;;2.80;35.80;;;;;;4993329;28;20390;-76
2022/04/02 05:40:39;;;;;;;8.90;3.17;;;2.80;35.60;;;;;;4993151;28;20398;-76
2022/04/02 05:43:05;;;;;;;4.67;2.70;;;2.80;35.40;;;;;;4991989;28;20458;-76
2022/04/02 05:45:32;;;;;;;4.17;2.67;;;2.80;33.80;;;;;;4995726;28;20463;-76
2022/04/02 05:47:58;;;;;;;5.38;3.25;;;2.80;35.00;;;;;;4978555;28;20398;-75
2022/04/02 05:50:25;;;;;;;2.65;2.40;;;2.80;36.10;;;;;;4997065;28;20395;-75
2022/04/02 05:52:51;;;;;;;2.72;2.45;;;2.80;34.20;;;;;;5008457;23;20450;-73
2022/04/02 05:55:17;;;;;;;4.40;2.80;;;2.80;35.00;;;;;;4995550;28;20768;-74
2022/04/02 05:57:44;;;;;;;4.13;2.80;;;2.80;35.20;;;;;;4995023;28;20397;-74
2022/04/02 06:00:11;;;;;;;5.88;2.80;;;2.80;35.20;;;;;;4994993;28;20391;-72
2022/04/02 06:02:38;;;;;;;7.05;3.25;;;2.80;35.40;;;;;;4988823;28;20384;-73
2022/04/02 06:05:04;;;;;;;7.28;3.10;;;2.90;35.40;;;;;;4959246;28;20458;-74
2022/04/02 06:07:31;;;;;;;4.80;3.40;;;2.90;35.20;;;;;;4976530;28;20400;-73
2022/04/02 06:09:57;;;;;;;5.53;3.20;;;2.90;34.40;;;;;;4975117;28;20419;-74
2022/04/02 06:12:23;;;;;;;4.27;2.93;;;2.90;34.80;;;;;;4975029;28;20773;-73
2022/04/02 06:14:49;;;;;;;5.18;3.10;;;3.00;34.40;;;;;;4960780;28;20408;-72
2022/04/02 06:17:14;;;;;;;5.28;3.30;;;3.00;34.10;;;;;;4979131;28;20388;-72
2022/04/02 06:19:40;;;;;;;3.58;3.00;;;3.00;34.30;;;;;;4977917;28;20392;-73
2022/04/02 06:22:07;;;;;;;4.50;2.93;;;3.00;33.60;;;;;;4986009;28;20384;-72
2022/04/02 06:24:36;;;;;;;5.03;3.10;;;3.10;34.60;;;;;;4986715;28;20420;-73
2022/04/02 06:27:02;;;;;;;6.32;3.00;;;3.10;33.00;;;;;;4986846;28;20445;-73
2022/04/02 06:29:28;;;;;;;4.70;3.20;;;3.10;33.20;;;;;;4976349;28;20384;-73
2022/04/02 06:31:53;;;;;;;4.15;3.13;;;3.10;33.10;;;;;;4956138;28;20399;-74
2022/04/02 06:34:19;;;;;;;5.80;3.17;;;3.20;32.40;;;;;;4973304;28;20412;-74
2022/04/02 06:36:45;;;;;;;7.23;3.30;;;3.20;31.40;;;;;;4973205;28;20504;-74
2022/04/02 06:39:12;;;;;;;5.23;3.03;;;3.20;32.90;;;;;;4973008;28;20482;-73
2022/04/02 06:41:38;;;;;;;4.28;3.00;;;3.10;32.40;;;;;;4973616;28;20416;-73
2022/04/02 06:44:05;;;;;;;4.28;3.10;;;3.20;31.80;;;;;;4972688;28;20392;-72
2022/04/02 06:46:30;;;;;;;6.47;3.10;;;3.20;32.60;;;;;;4973130;28;20486;-73
2022/04/02 06:48:56;;;;;;;6.70;3.47;;;3.20;31.40;;;;;;4955254;28;20491;-74
2022/04/02 06:51:22;;;;;;;4.93;3.30;;;3.20;32.00;;;;;;4955800;28;20427;-74
2022/04/02 06:53:47;;;;;;;7.45;3.83;;;3.40;32.30;;;;;;4965063;28;20445;-73
2022/04/02 06:56:13;;;;;;;4.80;2.53;;;3.40;31.40;;;;;;4954205;28;20908;-74
2022/04/02 06:58:41;;;;;;;4.10;2.90;;;3.40;30.30;;;;;;4952440;28;20744;-73
2022/04/02 07:01:07;;;;;;;4.57;3.35;;;3.50;30.10;;;;;;4953450;28;20530;-73
2022/04/02 07:03:34;;;;;;;3.70;3.10;;;3.50;31.00;;;;;;4953536;28;20450;-73
2022/04/02 07:05:59;;;;;;;4.68;2.53;;;3.60;30.60;;;;;;4953293;28;20807;-73
2022/04/02 07:08:25;;;;;;;6.60;2.90;;;3.60;29.20;;;;;;4953381;28;20406;-72
2022/04/02 07:10:51;;;;;;;4.03;3.07;;;3.50;29.90;;;;;;4953197;28;20740;-74
2022/04/02 07:13:16;;;;;;;5.80;2.90;;;3.60;29.90;;;;;;4953262;28;20713;-73
2022/04/02 07:15:42;;;;;;;5.15;3.13;;;3.70;30.30;;;;;;4952989;28;20475;-73
2022/04/02 07:18:10;;;;;;;7.93;3.20;;;3.70;29.50;;;;;;4951850;28;20477;-74
2022/04/02 07:20:37;;;;;;;3.27;2.97;;;3.80;30.30;;;;;;4953291;28;20762;-74
2022/04/02 07:23:09;;;;;;;5.47;3.50;;;3.90;28.80;;;;;;4955203;28;20393;-73
2022/04/02 07:25:39;;;;;;;6.43;3.30;;;3.90;28.60;;;;;;4957222;28;20436;-73
2022/04/02 07:28:05;;;;;;;3.10;2.83;;;3.90;28.00;;;;;;4957202;28;20802;-73
2022/04/02 07:30:36;;;;;;;6.37;3.27;;;4.00;27.30;;;;;;4956966;28;20430;-73
2022/04/02 07:33:02;;;;;;;6.85;3.30;;;4.00;28.40;;;;;;4956441;28;20405;-73
2022/04/02 07:35:34;;;;;;;6.40;3.53;;;4.10;28.30;;;;;;4956624;28;20569;-73
2022/04/02 07:38:11;;;;;;;4.38;2.95;;;4.30;27.90;;;;;;4956839;28;20396;-73
2022/04/02 07:40:48;;;;;;;4.57;3.10;;;4.30;26.60;;;;;;4955158;29;20767;-73
2022/04/02 07:43:44;;;;;;;7.85;3.50;;;4.30;27.40;;;;;;4956476;28;20390;-73
2022/04/02 07:46:16;;;;;;;7.32;3.80;;;4.30;28.00;;;;;;4956633;29;20397;-72
2022/04/02 07:48:45;;;;;;;4.22;3.45;;;4.30;27.40;;;;;;4956599;28;20394;-73
2022/04/02 07:51:13;;;;;;;6.25;3.25;;;4.40;27.20;;;;;;4956837;28;20528;-73
2022/04/02 07:53:51;;;;;;;6.45;4.00;;;4.50;26.50;;;;;;4965095;28;20440;-72
2022/04/02 07:56:30;;;;;;;6.32;3.95;;;4.60;26.40;;;;;;4961380;28;20503;-74
2022/04/02 07:59:09;;;;;;;5.40;3.30;;;4.60;26.00;;;;;;4963878;28;20396;-75
2022/04/02 08:01:35;;;;;;;6.38;3.80;;;4.60;26.60;;;;;;4962731;28;20396;-73
2022/04/02 08:04:04;;;;;;;5.93;3.33;;;4.60;26.40;;;;;;4979203;28;20384;-74
2022/04/02 08:06:32;;;;;;;4.78;2.22;;;4.60;25.50;;;;;;4959842;28;20483;-75
2022/04/02 08:09:00;;;;;;;3.75;3.38;;;4.40;26.00;;;;;;4960241;28;20842;-73
2022/04/02 08:11:26;;;;;;;6.75;3.33;;;4.50;26.60;;;;;;4977329;28;20395;-74
2022/04/02 08:13:52;;;;;;;6.13;3.60;;;4.50;26.70;;;;;;4961064;28;20388;-74
2022/04/02 08:16:17;;;;;;;7.72;3.50;;;4.40;26.80;;;;;;4977571;28;20754;-74
2022/04/02 08:18:46;;;;;;;8.00;3.60;;;4.60;26.90;;;;;;4960483;28;20400;-73
2022/04/02 08:21:13;;;;;;;4.25;3.60;;;4.60;25.10;;;;;;4977114;28;20416;-74
2022/04/02 08:23:39;;;;;;;4.10;3.20;;;4.90;26.60;;;;;;4959399;28;20424;-74
2022/04/02 08:26:11;;;;;;;7.45;3.60;;;4.90;24.20;;;;;;4977681;28;20384;-72
2022/04/02 08:29:03;;;;;;;6.18;3.60;;;4.90;24.40;;;;;;4960564;28;20508;-74
2022/04/02 08:32:02;;;;;;;5.53;4.15;;;4.90;24.20;;;;;;4964412;28;20404;-73
2022/04/02 08:35:04;;;;;;;10.48;4.28;;;5.10;26.20;;;;;;4960924;28;20412;-72
2022/04/02 08:37:54;;;;;;;6.30;4.07;;;5.60;24.20;;;;;;4976771;28;20885;-72
2022/04/02 08:40:57;;;;;;;12.77;3.70;;;5.90;22.70;;;;;;4976657;28;20403;-72
2022/04/02 08:43:59;;;;;;;5.53;3.70;;;5.60;21.90;;;;;;4960596;28;20495;-74
2022/04/02 08:46:43;;;;;;;7.57;4.60;;;5.70;23.70;;;;;;4977861;28;20404;-74
2022/04/02 08:49:25;;;;;;;8.85;3.60;;;5.90;23.80;;;;;;4977072;28;20396;-74
2022/04/02 08:52:17;;;;;;;5.55;3.60;;;5.60;21.60;;;;;;4975321;28;20414;-74
2022/04/02 08:55:10;;;;;;;4.72;3.65;;;5.50;22.10;;;;;;4958849;28;20508;-73
2022/04/02 08:58:01;;;;;;;6.30;3.50;;;5.20;24.00;;;;;;4945204;28;20767;-71
2022/04/02 09:00:27;;;;;;;8.63;4.10;;;5.20;23.60;;;;;;4955809;28;20386;-73
2022/04/02 09:03:17;;;;;;;7.10;3.60;;;5.40;23.10;;;;;;4953951;28;20392;-73
2022/04/02 09:06:25;;;;;;;5.20;4.00;;;5.60;22.20;;;;;;4954602;28;20409;-72
2022/04/02 09:09:07;;;;;;;8.13;4.32;;;5.90;22.50;;;;;;4918787;29;20401;-73
2022/04/02 09:11:38;;;;;;;5.28;3.70;;;6.10;21.40;;;;;;4955311;28;20390;-72
2022/04/02 09:14:18;;;;;;;7.80;4.75;;;6.00;20.20;;;;;;4956368;28;20544;-72
2022/04/02 09:17:00;;;;;;;8.23;4.20;;;6.10;21.60;;;;;;4954704;29;20823;-73
2022/04/02 09:19:56;;;;;;;3.67;3.15;;;6.30;19.80;;;;;;4956402;28;20417;-74
2022/04/02 09:22:59;;;;;;;6.65;3.60;;;5.80;20.10;;;;;;4954652;28;20488;-73
2022/04/02 09:26:13;;;;;;;9.73;3.70;;;5.90;20.40;;;;;;4951422;28;20398;-73
2022/04/02 09:28:42;;;;;;;6.57;3.85;;;5.90;20.20;;;;;;4920201;28;20433;-73
2022/04/02 09:31:39;;;;;;;6.00;3.70;;;5.90;20.80;;;;;;4957490;28;20398;-74
2022/04/02 09:34:32;;;;;;;5.15;3.55;;;6.00;19.30;;;;;;4955896;28;20739;-75
2022/04/02 09:37:56;;;;;;;7.80;3.70;;;6.00;20.00;;;;;;4956147;28;20408;-74
2022/04/02 09:40:33;;;;;;;8.75;3.67;;;6.20;19.90;;;;;;4878332;29;20396;-73
2022/04/02 09:43:04;;;;;;;15.55;6.15;;;6.10;19.40;;;;;;4954739;28;20383;-73
2022/04/02 09:45:48;;;;;;;6.47;3.92;;;6.20;18.80;;;;;;4955912;28;20382;-72
2022/04/02 09:48:24;;;;;;;5.40;3.90;;;6.20;19.40;;;;;;4955737;28;20409;-72
2022/04/02 09:50:58;;;;;;;6.50;3.70;;;6.30;19.40;;;;;;4954637;28;20413;-72
2022/04/02 09:53:29;;;;;;;5.80;3.80;;;6.10;18.60;;;;;;4960680;28;20489;-73
2022/04/02 09:56:09;;;;;;;7.40;4.60;;;6.40;19.00;;;;;;4974743;28;20412;-73
2022/04/02 09:59:01;;;;;;;3.00;2.78;;;6.70;18.20;;;;;;4974570;28;20381;-72
2022/04/02 10:01:51;;;;;;;5.82;4.10;;;6.50;17.00;;;;;;4975299;28;20384;-72
2022/04/02 10:04:42;;;;;;;6.47;3.65;;;6.10;18.00;;;;;;4975092;28;20870;-74
2022/04/02 10:07:33;;;;;;;6.40;3.90;;;6.40;18.10;;;;;;4974645;28;20438;-72
2022/04/02 10:10:01;;;;;;;6.15;3.60;;;6.60;17.00;;;;;;4974701;28;20391;-73
2022/04/02 10:12:29;;;;;;;7.95;3.92;;;6.60;16.60;;;;;;4974793;28;20392;-73
2022/04/02 10:14:59;;;;;;;4.65;3.95;;;6.70;17.70;;;;;;4974624;28;20484;-72
2022/04/02 10:17:28;;;;;;;5.65;3.92;;;6.90;17.50;;;;;;4974926;28;20388;-73
2022/04/02 10:19:56;;;;;;;8.13;3.83;;;7.20;16.70;;;;;;4958487;28;20393;-73
2022/04/02 10:22:37;;;;;;;4.70;3.63;;;7.50;17.40;;;;;;4958599;28;20396;-73
2022/04/02 10:25:08;;;;;;;5.85;5.00;;;7.60;16.60;;;;;;4958842;28;20491;-74
2022/04/02 10:27:36;;;;;;;6.18;4.20;;;7.70;16.20;;;;;;4957847;28;20407;-74
2022/04/02 10:30:19;;;;;;;7.05;3.47;;;7.80;15.10;;;;;;4956864;28;20395;-74
2022/04/02 10:32:48;;;;;;;6.05;4.03;;;7.30;14.40;;;;;;4975497;28;20479;-71
2022/04/02 10:35:14;;;;;;;4.45;3.50;;;6.90;15.40;;;;;;4974270;28;20408;-72
2022/04/02 10:37:41;;;;;;;4.45;3.90;;;6.60;16.50;;;;;;4975571;28;20386;-74
2022/04/02 10:40:12;;;;;;;5.70;4.28;;;6.70;16.30;;;;;;4976472;28;20432;-73
2022/04/02 10:42:53;;;;;;;5.82;4.40;;;6.50;16.90;;;;;;4976618;28;20384;-73
2022/04/02 10:45:20;;;;;;;5.72;4.18;;;6.40;17.80;;;;;;4959803;28;20443;-72
2022/04/02 10:48:21;;;;;;;7.90;4.35;;;5.60;20.00;;;;;;4962096;28;20396;-72
2022/04/02 10:50:47;;;;;;;6.63;5.03;;;5.30;23.00;;;;;;4954809;28;20392;-73
2022/04/02 10:53:17;;;;;;;9.63;4.87;;;5.20;24.70;;;;;;4955758;28;20565;-73
2022/04/02 10:55:49;;;;;;;6.25;5.00;;;5.10;25.00;;;;;;4956036;28;20437;-72
2022/04/02 10:58:20;;;;;;;6.80;5.18;;;5.20;23.90;;;;;;4960431;28;20409;-73
2022/04/02 11:00:47;;;;;;;6.82;5.10;;;5.20;23.70;;;;;;4963767;28;20405;-73
2022/04/02 11:03:39;;;;;;;7.18;5.20;;;5.50;24.00;;;;;;4964174;28;20767;-74
2022/04/02 11:06:05;;;;;;;8.35;4.90;;;5.80;22.70;;;;;;4965759;28;20393;-74
2022/04/02 11:08:31;;;;;;;8.57;5.28;;;5.90;21.10;;;;;;4964375;28;20406;-74
2022/04/02 11:11:16;;;;;;;9.77;6.00;;;6.00;22.60;;;;;;4960326;28;20397;-74
2022/04/02 11:13:43;;;;;;;10.65;5.60;;;6.60;20.90;;;;;;4960612;28;20452;-73
2022/04/02 11:16:15;;;;;;;5.68;4.40;;;6.90;20.00;;;;;;4959759;28;20452;-73
2022/04/02 11:19:53;;;;;;;8.05;4.50;;;6.90;18.70;;;;;;4960927;28;20444;-72
2022/04/02 11:21:35;;;;;;;4.82;4.43;;;6.80;18.40;;;;;;4960560;28;20397;-73
2022/04/02 11:24:04;;;;;;;5.72;4.15;;;7.00;18.50;;;;;;4961550;28;20435;-73
2022/04/02 11:26:36;;;;;;;5.65;4.72;;;7.00;18.30;;;;;;4958884;28;20489;-73
2022/04/02 11:29:03;;;;;;;5.35;4.20;;;7.00;19.00;;;;;;4959500;28;20842;-72
2022/04/02 11:31:29;;;;;;;7.20;4.75;;;7.10;18.00;;;;;;4960575;28;20404;-73
2022/04/02 11:33:58;;;;;;;4.38;3.97;;;7.10;18.70;;;;;;4967766;28;20478;-73
2022/04/02 11:36:44;;;;;;;8.55;4.60;;;6.50;19.10;;;;;;4965349;28;20416;-74
2022/04/02 11:39:11;;;;;;;7.20;4.95;;;6.00;21.60;;;;;;4967089;28;20397;-73
2022/04/02 11:41:45;;;;;;;10.05;5.38;;;5.90;23.60;;;;;;4962958;28;20489;-71
2022/04/02 11:44:14;;;;;;;13.13;5.00;;;5.90;26.40;;;;;;4960105;28;20430;-74
2022/04/02 11:46:51;;;;;;;6.38;4.97;;;6.00;27.50;;;;;;4960597;28;20393;-73
2022/04/02 11:49:29;;;;;;;6.10;5.00;;;5.90;27.70;;;;;;4958538;28;20393;-71
2022/04/02 11:52:02;;;;;;;9.40;5.40;;;5.80;27.90;;;;;;4959099;28;20896;-73
2022/04/02 11:54:28;;;;;;;11.77;5.90;;;5.80;27.60;;;;;;4988281;23;20446;-75
2022/04/02 11:57:06;;;;;;;5.97;5.28;;;6.00;27.00;;;;;;4994657;28;20402;-75
2022/04/02 11:59:37;;;;;;;6.03;5.43;;;6.30;26.00;;;;;;4994843;28;20378;-75
2022/04/02 12:02:03;;;;;;;7.78;5.70;;;6.50;24.80;;;;;;4994610;28;20390;-75
2022/04/02 12:04:29;;;;;;;7.55;5.97;;;6.80;23.90;;;;;;4976384;28;20481;-75
2022/04/02 12:07:05;;;;;;;7.63;5.90;;;7.00;25.00;;;;;;4976957;28;20377;-77
2022/04/02 12:09:33;;;;;;;6.20;5.13;;;7.30;23.30;;;;;;4981133;28;20385;-76
2022/04/02 12:12:04;;;;;;;7.07;5.45;;;7.40;21.70;;;;;;4987108;28;20469;-75
2022/04/02 12:14:38;;;;;;;7.57;4.82;;;7.30;20.90;;;;;;4971144;28;20768;-75
2022/04/02 12:17:14;;;;;;;7.95;4.90;;;7.50;20.70;;;;;;4987533;28;20463;-74
2022/04/02 12:19:45;;;;;;;8.75;5.05;;;7.50;19.80;;;;;;4990596;28;20424;-74
2022/04/02 12:22:16;;;;;;;7.60;4.60;;;7.40;20.50;;;;;;4986160;28;20763;-76
2022/04/02 12:24:47;;;;;;;6.15;5.20;;;6.80;20.10;;;;;;4990855;28;20391;-75
2022/04/02 12:27:20;;;;;;;8.23;4.90;;;6.80;21.10;;;;;;4986270;28;20392;-75
2022/04/02 12:29:48;;;;;;;4.47;3.50;;;7.20;21.30;;;;;;4980373;28;20403;-75
2022/04/02 12:32:27;;;;;;;8.60;4.50;;;6.80;20.80;;;;;;4987366;28;20396;-75
2022/04/02 12:34:56;;;;;;;7.55;4.50;;;6.20;23.30;;;;;;4983870;28;20773;-74
2022/04/02 12:37:23;;;;;;;7.30;4.50;;;5.80;24.90;;;;;;4988323;28;20452;-74
2022/04/02 12:39:51;;;;;;;6.95;4.50;;;5.80;25.50;;;;;;4956273;28;20388;-76
2022/04/02 12:42:38;;;;;;;7.50;5.00;;;5.60;26.90;;;;;;4988497;28;20652;-76
2022/04/02 12:45:09;;;;;;;6.50;5.10;;;5.60;27.50;;;;;;4988311;28;20466;-76
2022/04/02 12:47:36;;;;;;;10.20;4.90;;;5.80;27.00;;;;;;4987544;28;20393;-76
2022/04/02 12:50:15;;;;;;;5.80;4.20;;;6.00;24.50;;;;;;4967913;28;20397;-75
2022/04/02 12:52:46;;;;;;;6.07;4.78;;;6.10;24.50;;;;;;4987048;28;20380;-75
2022/04/02 12:55:24;;;;;;;5.47;4.20;;;6.20;24.10;;;;;;4964171;29;20448;-75
2022/04/02 12:58:07;;;;;;;8.82;5.80;;;6.40;22.90;;;;;;4963638;29;20413;-75
2022/04/02 13:00:37;;;;;;;7.20;5.00;;;6.60;23.00;;;;;;4967190;29;20398;-74
2022/04/02 13:03:04;;;;;;;8.73;5.20;;;6.80;21.50;;;;;;4955236;29;20394;-74
2022/04/02 13:05:51;;;;;;;9.07;5.10;;;7.00;21.40;;;;;;4957326;29;20397;-74
2022/04/02 13:08:17;;;;;;;10.20;5.85;;;7.40;20.60;;;;;;4973909;29;20409;-74
2022/04/02 13:10:43;;;;;;;8.52;5.22;;;7.70;20.00;;;;;;4955001;29;20386;-75
2022/04/02 13:13:14;;;;;;;6.75;5.90;;;7.90;19.80;;;;;;4960448;28;20409;-74
2022/04/02 13:15:50;;;;;;;7.93;5.60;;;7.70;19.40;;;;;;4946980;29;20512;-75